Latest Weather Observations for Gannett Cay

IDQ60801

Issued at 1:35 pm EST Monday 15 September 2014 (issued every 30 minutes, with the page automatically refreshed every 10 minutes)

About weather observations | Map of weather stations | Latest weather observations for QLD | Other Formats
Station Details ID: 200831 Name: GANNET CAY Lat: -21.98 Lon: 152.47 Height: 2.3 m
Data from the previous 72 hours. | See also: Recent months for locations in Queensland
Date/Time
EST
Temp
°C
App
Temp
°C
Dew
Point
Rel
Hum
%
Delta-T
°C
Wind Press
QNH
hPa
Press
MSL
hPa
Rain
since 9 am
mm
Dir
 
Spd
km/h
Gust
km/h
Spd
kts
Gust
kts
15/01:30pm 22.6 - - - - E 13 17 7 9 1015.5 - -
15/01:26pm 22.3 - - - - E 15 15 8 8 1015.5 1015.6 -
15/01:00pm 21.8 - - - - E 17 20 9 11 1015.7 - -
15/12:30pm 22.5 - - - - SE 20 24 11 13 1016.1 - -
15/12:26pm 22.3 - - - - SE 20 - 11 - - 1016.2 -
15/12:00pm 22.3 - - - - SE 19 22 10 12 1016.4 - -
15/11:30am 22.4 - - - - SE 19 22 10 12 1016.9 - -
15/11:26am 22.2 - - - - SE 20 - 11 - - 1017.1 -
15/11:00am 22.2 - - - - SE 20 24 11 13 1017.3 - -
15/10:26am 22.1 - - - - ESE 20 - 11 - - 1017.9 -
15/09:26am 22.0 - - - - ESE 20 - 11 - - 1018.2 -
15/08:26am 21.7 - - - - ESE 22 - 12 - - 1018.2 -
15/07:26am 21.6 - - - - SE 24 - 13 - - 1017.8 -
15/06:26am 21.5 - - - - ESE 24 - 13 - - 1017.4 -
15/05:26am 21.0 - - - - ESE 22 - 12 - - 1016.8 -
15/04:26am 21.1 - - - - ESE 24 - 13 - - 1016.3 -
15/03:26am 21.1 - - - - SE 28 - 15 - - 1016.2 -
15/02:26am 21.0 - - - - ESE 24 - 13 - - 1016.6 -
15/01:26am 19.7 - - - - ENE 30 - 16 - - 1017.3 -
15/12:26am 20.1 - - - - ESE 35 - 19 - - 1017.7 -
 
Date/Time
EST
Temp
°C
App
Temp
°C
Dew
Point
Rel
Hum
%
Delta-T
°C
Wind Press
QNH
hPa
Press
MSL
hPa
Rain
since 9 am
mm
Dir
 
Spd
km/h
Gust
km/h
Spd
kts
Gust
kts
14/11:26pm 21.4 - - - - ESE 33 - 18 - - 1018.2 -
14/10:26pm 21.6 - - - - ESE 35 - 19 - - 1018.0 -
14/09:26pm 21.3 - - - - ESE 33 - 18 - - 1018.0 -
14/08:30pm 21.2 - - - - ESE 39 46 21 25 1017.9 - -
14/08:26pm 20.8 - - - - ESE 41 - 22 - - 1018.0 -
14/08:00pm 21.7 - - - - ESE 37 44 20 24 1017.8 - -
14/07:30pm 21.3 - - - - SE 35 43 19 23 1017.7 - -
14/07:26pm 21.2 - - - - SE 37 - 20 - - 1017.8 -
14/07:17pm 21.5 - - - - SE 35 41 19 22 1017.5 - -
14/07:00pm 22.0 - - - - ESE 37 41 20 22 1017.4 - -
14/06:30pm 22.0 - - - - ESE 37 43 20 23 1017.3 - -
14/06:26pm 22.1 - - - - ESE 35 - 19 - - 1017.4 -
14/06:00pm 22.0 - - - - ESE 35 41 19 22 1017.2 - -
14/05:30pm 22.0 - - - - ESE 37 41 20 22 1016.8 - -
14/05:26pm 22.0 - - - - ESE 37 - 20 - - 1016.9 -
14/05:00pm 22.3 - - - - ESE 39 43 21 23 1016.4 - -
14/04:30pm 22.4 - - - - ESE 39 43 21 23 1016.4 - -
14/04:26pm 22.3 - - - - ESE 39 - 21 - - 1016.5 -
14/04:00pm 22.5 - - - - ESE 39 43 21 23 1016.1 - -
14/03:30pm 22.4 - - - - ESE 37 43 20 23 1016.1 - -
14/03:26pm 22.4 - - - - ESE 37 - 20 - - 1016.2 -
14/03:00pm 22.6 - - - - ESE 37 43 20 23 1016.0 - -
14/02:30pm 22.3 - - - - ESE 35 43 19 23 1016.2 - -
14/02:26pm 22.5 - - - - ESE 37 - 20 - - 1016.3 -
14/02:00pm 22.5 - - - - ESE 37 43 20 23 1016.4 - -
14/01:30pm 22.4 - - - - ESE 37 41 20 22 1016.6 - -
14/01:26pm 22.5 - - - - ESE 37 - 20 - - 1016.7 -
14/01:00pm 22.5 - - - - ESE 35 41 19 22 1016.9 - -
14/12:30pm 22.5 - - - - ESE 39 46 21 25 1017.2 - -
14/12:26pm 22.4 - - - - ESE 37 - 20 - - 1017.3 -
14/12:00pm 22.4 - - - - ESE 43 48 23 26 1017.3 - -
14/11:30am 22.4 - - - - ESE 43 50 23 27 1017.5 - -
14/11:26am 22.3 - - - - ESE 41 - 22 - - 1017.6 -
14/11:00am 22.5 - - - - E 43 50 23 27 1017.7 - -
14/10:30am 22.3 - - - - ESE 44 50 24 27 1018.0 - -
14/10:26am 22.3 - - - - ESE 44 - 24 - - 1018.1 -
14/10:00am 22.2 - - - - ESE 44 52 24 28 1018.3 - -
14/09:30am 22.2 - - - - ESE 43 48 23 26 1018.4 - -
14/09:26am 22.1 - - - - ESE 43 - 23 - - 1018.5 -
14/09:00am 22.2 - - - - ESE 43 50 23 27 1018.5 - -
14/08:30am 22.0 - - - - ESE 41 48 22 26 1018.6 - -
14/08:26am 22.1 - - - - ESE 43 - 23 - - 1018.7 -
14/08:00am 21.9 - - - - ESE 44 50 24 27 1018.5 - -
14/07:30am 21.9 - - - - ESE 44 52 24 28 1018.1 - -
14/07:26am 21.8 - - - - ESE 46 - 25 - - 1018.2 -
14/07:00am 21.8 - - - - ESE 43 50 23 27 1017.7 - -
14/06:30am 21.5 - - - - ESE 41 46 22 25 1017.6 - -
14/06:26am 21.6 - - - - ESE 39 - 21 - - 1017.7 -
14/06:00am 21.5 - - - - ESE 44 52 24 28 1017.2 - -
14/05:30am 21.5 - - - - ESE 44 50 24 27 1016.9 - -
14/05:26am 21.4 - - - - ESE 44 - 24 - - 1017.0 -
14/05:00am 21.4 - - - - ESE 44 50 24 27 1016.9 - -
14/04:30am 21.6 - - - - ESE 39 43 21 23 1016.7 - -
14/04:26am 21.6 - - - - SE 39 - 21 - - 1016.9 -
14/04:00am 21.4 - - - - SE 41 46 22 25 1016.8 - -
14/03:30am 21.5 - - - - SE 39 44 21 24 1016.8 - -
14/03:26am 21.5 - - - - SE 37 - 20 - - 1017.0 -
14/03:00am 21.4 - - - - SE 39 46 21 25 1017.0 - -
14/02:30am 21.3 - - - - SE 41 46 22 25 1017.2 - -
14/02:26am 21.5 - - - - SE 41 - 22 - - 1017.3 -
14/02:00am 21.4 - - - - SE 39 43 21 23 1017.4 - -
14/01:30am 21.6 - - - - SE 39 44 21 24 1017.8 - -
14/01:26am 21.5 - - - - ESE 37 - 20 - - 1018.0 -
14/01:00am 21.6 - - - - ESE 37 43 20 23 1018.2 - -
14/12:30am 21.7 - - - - SE 35 39 19 21 1018.6 - -
14/12:26am 21.7 - - - - SE 33 - 18 - - 1018.8 -
14/12:00am 21.6 - - - - SE 33 37 18 20 1019.1 - -
 
Date/Time
EST
Temp
°C
App
Temp
°C
Dew
Point
Rel
Hum
%
Delta-T
°C
Wind Press
QNH
hPa
Press
MSL
hPa
Rain
since 9 am
mm
Dir
 
Spd
km/h
Gust
km/h
Spd
kts
Gust
kts
13/11:30pm 21.6 - - - - SE 35 41 19 22 1019.2 - -
13/11:26pm 21.5 - - - - SE 35 - 19 - - 1019.4 -
13/11:00pm 21.6 - - - - ESE 37 41 20 22 1019.4 - -
13/10:30pm 21.6 - - - - ESE 35 43 19 23 1019.6 - -
13/10:26pm 21.7 - - - - ESE 35 - 19 - - 1019.7 -
13/10:00pm 21.5 - - - - ESE 37 41 20 22 1019.8 - -
13/09:30pm 21.7 - - - - ESE 35 43 19 23 1019.8 - -
13/09:26pm 21.7 - - - - ESE 37 - 20 - - 1019.9 -
13/09:00pm 21.6 - - - - SE 39 46 21 25 1019.7 - -
13/08:30pm 21.7 - - - - ESE 43 48 23 26 1019.6 - -
13/08:26pm 21.7 - - - - ESE 43 - 23 - - 1019.7 -
13/08:00pm 21.9 - - - - ESE 41 46 22 25 1019.5 - -
13/07:30pm 21.7 - - - - ESE 41 50 22 27 1019.2 - -
13/07:26pm 21.7 - - - - ESE 41 - 22 - - 1019.2 -
13/07:00pm 21.7 - - - - ESE 43 50 23 27 1018.9 - -
13/06:30pm 21.8 - - - - ESE 43 48 23 26 1018.7 - -
13/06:26pm 21.9 - - - - ESE 41 - 22 - - 1018.8 -
13/06:00pm 21.8 - - - - ESE 41 46 22 25 1018.4 - -
13/05:30pm 21.8 - - - - SE 39 44 21 24 1018.3 - -
13/05:26pm 21.9 - - - - SE 37 - 20 - - 1018.4 -
13/05:00pm 22.1 - - - - SE 37 43 20 23 1018.1 - -
13/04:30pm 22.2 - - - - SE 35 41 19 22 1018.0 - -
13/04:26pm 22.1 - - - - SSE 35 - 19 - - 1018.0 -
13/04:00pm 22.1 - - - - SSE 32 35 17 19 1017.9 - -
13/03:30pm 22.1 - - - - SSE 32 35 17 19 1018.1 - -
13/03:26pm 22.2 - - - - SSE 32 - 17 - - 1018.2 -
13/03:00pm 22.2 - - - - SSE 30 33 16 18 1018.1 - -
13/02:30pm 22.4 - - - - SSE 28 32 15 17 1018.2 - -
13/02:26pm 22.5 - - - - SSE 28 - 15 - - 1018.3 -
13/02:00pm 22.4 - - - - SSE 26 30 14 16 1018.3 - -
13/01:30pm 22.2 - - - - SSE 26 28 14 15 1018.6 - -
13/01:26pm 22.5 - - - - SSE 24 - 13 - - 1018.8 -
13/01:00pm 22.0 - - - - SSE 26 30 14 16 1018.8 - -
13/12:30pm 22.6 - - - - SSE 26 30 14 16 1019.0 - -
13/12:26pm 22.6 - - - - SSE 26 - 14 - - 1019.1 -
13/12:00pm 22.6 - - - - SE 28 32 15 17 1019.3 - -
13/11:30am 22.5 - - - - SE 28 32 15 17 1019.6 - -
13/11:26am 22.5 - - - - SE 28 - 15 - - 1019.8 -
13/11:00am 22.5 - - - - SE 28 32 15 17 1019.9 - -
13/10:30am 22.4 - - - - SE 30 32 16 17 1020.1 - -
13/10:26am 22.3 - - - - SE 30 - 16 - - 1020.3 -
13/10:00am 22.3 - - - - SE 30 35 16 19 1020.4 - -
13/09:30am 22.2 - - - - SE 32 35 17 19 1020.1 - -
13/09:26am 22.1 - - - - SE 32 - 17 - - 1020.2 -
13/09:00am 22.1 - - - - SE 35 41 19 22 1020.0 - -
13/08:30am 22.0 - - - - SE 32 35 17 19 1019.8 - -
13/08:26am 22.0 - - - - SE 32 - 17 - - 1019.8 -
13/08:00am 21.9 - - - - SE 30 33 16 18 1019.4 - -
13/07:30am 22.0 - - - - ESE 30 35 16 19 1019.1 - -
13/07:26am 21.9 - - - - ESE 30 - 16 - - 1019.2 -
13/07:00am 21.6 - - - - ESE 30 35 16 19 1018.9 - -
13/06:30am 21.7 - - - - ESE 30 33 16 18 1018.4 - -
13/06:26am 21.6 - - - - ESE 30 - 16 - - 1018.5 -
13/06:00am 21.5 - - - - ESE 32 35 17 19 1018.1 - -
13/05:30am 21.7 - - - - E 30 32 16 17 1018.0 - -
13/05:26am 21.4 - - - - E 28 - 15 - - 1018.0 -
13/05:00am 21.4 - - - - E 28 35 15 19 1017.6 - -
13/04:30am 21.5 - - - - E 30 35 16 19 1017.3 - -
13/04:26am 21.5 - - - - E 30 - 16 - - 1017.4 -
13/04:00am 21.6 - - - - E 32 35 17 19 1017.2 - -
13/03:26am 21.6 - - - - E 32 - 17 - - 1017.2 -
13/02:30am 21.6 - - - - E 33 35 18 19 1017.5 - -
13/02:26am 21.7 - - - - E 32 - 17 - - 1017.7 -
13/02:00am 21.8 - - - - E 33 37 18 20 1017.8 - -
13/01:26am 21.8 - - - - E 32 - 17 - - 1018.2 -
13/01:00am 21.7 - - - - E 33 37 18 20 1018.4 - -
13/12:30am 21.8 - - - - E 33 37 18 20 1018.8 - -
13/12:26am 21.9 - - - - E 32 - 17 - - 1019.0 -
 
Date/Time
EST
Temp
°C
App
Temp
°C
Dew
Point
Rel
Hum
%
Delta-T
°C
Wind Press
QNH
hPa
Press
MSL
hPa
Rain
since 9 am
mm
Dir
 
Spd
km/h
Gust
km/h
Spd
kts
Gust
kts
12/11:30pm 21.9 - - - - ESE 32 35 17 19 1019.4 - -
12/11:26pm 21.8 - - - - ESE 32 - 17 - - 1019.5 -
12/11:00pm 22.0 - - - - ESE 32 35 17 19 1019.7 - -
12/10:26pm 22.0 - - - - ESE 28 - 15 - - 1019.8 -
12/09:30pm 22.0 - - - - ESE 30 33 16 18 1019.7 - -
12/09:26pm 22.1 - - - - ESE 28 - 15 - - 1019.8 -
12/09:00pm 22.0 - - - - ESE 30 32 16 17 1019.5 - -
12/08:30pm 22.1 - - - - ESE 28 32 15 17 1019.4 - -
12/08:26pm 22.1 - - - - ESE 26 - 14 - - 1019.4 -
12/08:00pm 22.1 - - - - ESE 26 28 14 15 1019.3 - -
12/07:30pm 22.1 - - - - ESE 22 26 12 14 1019.1 - -
12/07:26pm 22.1 - - - - ESE 22 - 12 - - 1019.1 -
12/07:00pm 22.1 - - - - SE 22 26 12 14 1018.7 - -
12/06:30pm 22.2 - - - - SE 22 26 12 14 1018.6 - -
12/06:26pm 22.1 - - - - SE 22 - 12 - - 1018.6 -
12/06:00pm 22.1 - - - - SE 20 22 11 12 1018.5 - -
12/05:30pm 22.2 - - - - SSE 22 26 12 14 1018.3 - -
12/05:26pm 22.3 - - - - SSE 22 - 12 - - 1018.4 -
12/05:00pm 22.5 - - - - SSE 22 26 12 14 1018.0 - -
12/04:30pm 22.4 - - - - SSE 20 24 11 13 1017.8 - -
12/04:26pm 22.3 - - - - SSE 20 - 11 - - 1017.8 -
12/04:00pm 22.4 - - - - SSE 20 22 11 12 1017.5 - -
12/03:30pm 22.6 - - - - SSE 20 24 11 13 1017.6 - -
12/03:26pm 22.5 - - - - SSE 20 - 11 - - 1017.7 -
12/03:00pm 22.5 - - - - SSE 22 24 12 13 1017.5 - -
12/02:30pm 22.4 - - - - SSE 22 24 12 13 1017.5 - -
12/02:26pm 22.3 - - - - SSE 22 - 12 - - 1017.6 -

Other Formats:

Comma delimited format used in spreadsheet applications
http://www.bom.gov.au/fwo/IDQ60801/IDQ60801.94379.axf

JavaScript Object Notation format (JSON) in row-major order
http://www.bom.gov.au/fwo/IDQ60801/IDQ60801.94379.json